This is the latest recevied weather packets stored in our database for station/object OM6ABF-11. If no packets are shown the sender has not sent any weather packets the latest 10 day(s).
| Time | Temp. | Humidity | Pressure | Rain* | Wind** | Luminosity | Snow |
|---|---|---|---|---|---|---|---|
| 1777970686 | 22.22° C | 27% | 1013.4 hPa | - | - | - | - |
| 1777969789 | 22.22° C | 27% | 1013.7 hPa | - | - | - | - |
| 1777968889 | 22.22° C | 28% | 1013.8 hPa | - | - | - | - |
| 1777967990 | 22.22° C | 26% | 1014 hPa | - | - | - | - |
| 1777967091 | 22.22° C | 30% | 1014.2 hPa | - | - | - | - |
| 1777966190 | 21.67° C | 32% | 1014.3 hPa | - | - | - | - |
| 1777965289 | 18.89° C | 37% | 1014.6 hPa | - | - | - | - |
| 1777964390 | 18.89° C | 37% | 1014.7 hPa | - | - | - | - |
| 1777963490 | 16.67° C | 41% | 1015 hPa | - | - | - | - |
| 1777962591 | 14.44° C | 44% | 1015.1 hPa | - | - | - | - |
| 1777961692 | 13.33° C | 46% | 1015.2 hPa | - | - | - | - |
| 1777960793 | 14.44° C | 44% | 1015.1 hPa | - | - | - | - |
| 1777959893 | 13.89° C | 44% | 1015.3 hPa | - | - | - | - |
| 1777958992 | 13.89° C | 45% | 1015.4 hPa | - | - | - | - |
| 1777958093 | 11.67° C | 50% | 1015.6 hPa | - | - | - | - |
| 1777957192 | 10° C | 54% | 1015.6 hPa | - | - | - | - |
| 1777956291 | 7.22° C | 61% | 1015.7 hPa | - | - | - | - |
| 1777955392 | 6.11° C | 64% | 1015.6 hPa | - | - | - | - |
| 1777954493 | 5° C | 70% | 1015.9 hPa | - | - | - | - |
| 1777953593 | 2.78° C | 77% | 1016 hPa | - | - | - | - |
| 1777952693 | 2.22° C | 79% | 1016 hPa | - | - | - | - |
| 1777951793 | 1.11° C | 82% | 1015.9 hPa | - | - | - | - |
| 1777950893 | 1.11° C | 81% | 1016 hPa | - | - | - | - |
| 1777949993 | 1.67° C | 81% | 1016 hPa | - | - | - | - |
| 1777949092 | 1.67° C | 80% | 1016.1 hPa | - | - | - | - |
* Rain since midnight (hover to see other rain measurements)
** Current wind speed in m/s (hover to see current wind gust speed)